Havana, Cuba
Current Conditions -  °F | °C
As of 6:55 PM on Monday 22 Dec 2014 (Local Time) from MUHA Reporting Station
Few Clouds Few Clouds  
Wind Chill: 24°   Ceiling: Unl
Heat Index: 24°   Visibility: 6mi
Dew Point: 18°   Wind: 5mph
Humidity: 69%   Direction: 180°S
Pressure: 29.94"   Gusts: NA
Location:  23.12°N, 82.39°W
Report Text: MUHA 222255Z 18004KT 9000 FEW023 24/18 Q1014
Loading
Personal Weather Stations






























Interactive Weather Map New forecast layout! Learn more

10-Day Weather Forecast

Advertisements
Track Severe Weather on mobile